To NAV CANADA Home Page Login to a new session Search on AWWS site Disclaimer Vers la page française équivalente Tips FAQ What's new on the site To the Forecasts and Observations / NOTAM section To "File a Flight Plan" website Publications and other links Update of the User's profile FIC Telephone Numbers My Weather Data Folder Route Weather Data Regional Weather Data Local Weather Data To the Forecasts and Observations / NOTAM section
Request Generated 11/16/2018 at 19:55:46 UTC . Weather information available at that time is displayed.

METAR/TAF

If you find any discrepancies between the coded METAR/TAF and the plain language METAR/TAF please use the coded METAR/TAF. LWIS bulletins are not decoded in plain language.

LONDON/ON    

SPECI CYXU 161919Z 25015KT 2 1/2SM -SN BR FEW006 OVC009 M01/M02 A2976 RMK SF1SF CIG RAG SLP090=
SPECI
LOCATION
CYXU - LONDON/ON
DATE - TIME
16 NOVEMBER 2018 - 1919 UTC
WIND
250 TRUE @ 15  KNOTS
VISIBILITY
2 1/2 STAT.  MILES
RUNWAY VISUAL RANGE
WEATHER
LIGHT SNOW
MIST
CLOUDINESS
FEW CLOUDS (1/8 - 2/8) 600  FT
OVERCAST 900  FT
TEMP / DEWPOINT
-1 C / -2 C
ALTIMETER
29.76 IN HG
RECENT WEATHER
WIND SHEAR

METAR CYXU 161900Z 23016G22KT 4SM -SN BR OVC010 M00/M02 A2976 RMK SF8 CIG RAG S 088=
METAR
LOCATION
CYXU - LONDON/ON
DATE - TIME
16 NOVEMBER 2018 - 1900 UTC
WIND
230 TRUE @ 16  KNOTS
GUSTS
22 KNOTS
VISIBILITY
4 STAT.  MILES
RUNWAY VISUAL RANGE
WEATHER
LIGHT SNOW
MIST
CLOUDINESS
OVERCAST 1000  FT
TEMP / DEWPOINT
0 C / -2 C
ALTIMETER
29.76 IN HG
RECENT WEATHER
WIND SHEAR

METAR CYXU 161800Z 24011G21KT 5SM -SN SCT008 OVC012 M00/M02 A2975 RMK SF4SC4 SL 87=
METAR
LOCATION
CYXU - LONDON/ON
DATE - TIME
16 NOVEMBER 2018 - 1800 UTC
WIND
240 TRUE @ 11  KNOTS
GUSTS
21 KNOTS
VISIBILITY
5 STAT.  MILES
RUNWAY VISUAL RANGE
WEATHER
LIGHT SNOW
CLOUDINESS
SCATTERED CLOUDS (3/8 - 4/8) 800  FT
OVERCAST 1200  FT
TEMP / DEWPOINT
0 C / -2 C
ALTIMETER
29.75 IN HG
RECENT WEATHER
WIND SHEAR

SPECI CYXU 161730Z 25013KT 5SM -SN BKN008 OVC012 M00/M02 A2975 RMK SF5SC3 SLP08
SPECI
LOCATION
CYXU - LONDON/ON
DATE - TIME
16 NOVEMBER 2018 - 1730 UTC
WIND
250 TRUE @ 13  KNOTS
VISIBILITY
5 STAT.  MILES
RUNWAY VISUAL RANGE
WEATHER
LIGHT SNOW
CLOUDINESS
BROKEN CLOUDS (5/8 - 7/8) 800  FT
OVERCAST 1200  FT
TEMP / DEWPOINT
0 C / -2 C
ALTIMETER
29.75 IN HG
RECENT WEATHER
WIND SHEAR

SPECI CYXU 161722Z 25011G17KT 4SM -SN SCT008 OVC012 M00/M02 A2975 RMK SF3SC5 SL 86=
SPECI
LOCATION
CYXU - LONDON/ON
DATE - TIME
16 NOVEMBER 2018 - 1722 UTC
WIND
250 TRUE @ 11  KNOTS
GUSTS
17 KNOTS
VISIBILITY
4 STAT.  MILES
RUNWAY VISUAL RANGE
WEATHER
LIGHT SNOW
CLOUDINESS
SCATTERED CLOUDS (3/8 - 4/8) 800  FT
OVERCAST 1200  FT
TEMP / DEWPOINT
0 C / -2 C
ALTIMETER
29.75 IN HG
RECENT WEATHER
WIND SHEAR

METAR CYXU 161700Z 26013G20KT 4SM -SN OVC012 M00/M02 A2975 RMK SC8 CIG RAG SLP0 =
METAR
LOCATION
CYXU - LONDON/ON
DATE - TIME
16 NOVEMBER 2018 - 1700 UTC
WIND
260 TRUE @ 13  KNOTS
GUSTS
20 KNOTS
VISIBILITY
4 STAT.  MILES
RUNWAY VISUAL RANGE
WEATHER
LIGHT SNOW
CLOUDINESS
OVERCAST 1200  FT
TEMP / DEWPOINT
0 C / -2 C
ALTIMETER
29.75 IN HG
RECENT WEATHER
WIND SHEAR

TAF CYXU 161739Z 1618/1718 25015G25KT P6SM SCT008 OVC012 TEMPO 1618/1623 4SM -SN OVC008 FM162300 26012KT P6SM FEW009 OVC015 FM170400 26010KT P6SM BKN025 FM170800 26010KT P6SM FEW010 BKN025 PROB30 1708/1713 4SM -FZDZ BR OVC008 FM171500 26010G20KT P6SM BKN025 BKN060 RMK NXT FCST BY 170000Z=
TAF
LOCATION

CYXU - LONDON/ON
VALIDITY [UTC]
16 NOV - 1739 to
17 NOV - 1800
 
TIMES
[UTC]
WIND
[DEGREES TRUE]
VISIBILITY
[STAT. MILES]
WEATHER
CLOUDINESS
[FEET AGL]
 
16 NOV - 1800 to
16 NOV - 2300
250 @ 15 KNOTS
GUSTS 25 KNOTS
6+
NIL
800 SCATTERED
1200 OVERCAST
TEMPORARY CHANGES
16 NOV - 1800 to
16 NOV - 2300
 
4
LIGHT SNOW
800 OVERCAST
 
16 NOV - 2300 to
17 NOV - 0400
260 @ 12 KNOTS
6+
NIL
900 FEW
1500 FEW
1500 OVERCAST
 
17 NOV - 0400 to
17 NOV - 0800
260 @ 10 KNOTS
6+
NIL
2500 BROKEN
 
17 NOV - 0800 to
17 NOV - 1500
260 @ 10 KNOTS
6+
NIL
1000 FEW
2500 BROKEN
30% PROBABILITY
17 NOV - 0800 to
17 NOV - 1300
 
4
LIGHT FREEZING DRIZZLE
MIST
800 OVERCAST
 
17 NOV - 1500 to
17 NOV - 1800
260 @ 10 KNOTS
GUSTS 20 KNOTS
6+
NIL
2500 BROKEN
6000 BROKEN
REMARKS
THE NEXT FORECAST WILL BE ISSUED BY 0000 UTC ON DAY 17


Your time UTC time
Weather data provided by Environment Canada and NAV CANADA